Time;durP1;ratioP1;P1;durP2;ratioP2;P2;SDS_P1;SDS_P2;PMS_P1;PMS_P2;Temp;Humidity;BMP_temperature;BMP_pressure;BME280_temperature;BME280_humidity;BME280_pressure;Samples;Min_cycle;Max_cycle;Signal;HPM_P1;HPM_P2
2024/02/18 00:02:03;;;;;;;13.20;12.30;;;12.30;27.30;;;;;;4955839;28;21013;-79
2024/02/18 00:04:31;;;;;;;12.27;11.57;;;12.10;27.50;;;;;;4956320;28;20444;-79
2024/02/18 00:06:57;;;;;;;13.77;12.73;;;11.80;28.40;;;;;;4969695;28;20209;-79
2024/02/18 00:09:22;;;;;;;12.90;12.10;;;11.80;28.70;;;;;;4969946;28;20565;-79
2024/02/18 00:11:48;;;;;;;13.67;12.77;;;11.80;28.70;;;;;;4956110;28;20486;-79
2024/02/18 00:14:21;;;;;;;11.23;10.63;;;11.80;28.50;;;;;;4970903;28;20559;-79
2024/02/18 00:16:51;;;;;;;13.10;12.00;;;11.90;28.30;;;;;;4957158;28;20232;-80
2024/02/18 00:19:16;;;;;;;12.27;11.37;;;11.90;28.30;;;;;;4947932;29;20432;-79
2024/02/18 00:21:42;;;;;;;12.83;12.00;;;12.00;28.30;;;;;;4955790;28;20472;-80
2024/02/18 00:24:08;;;;;;;13.63;12.73;;;12.10;28.10;;;;;;4955339;28;20246;-80
2024/02/18 00:26:37;;;;;;;12.73;11.93;;;12.20;27.70;;;;;;4955590;28;20262;-81
2024/02/18 00:29:03;;;;;;;13.70;12.83;;;12.30;27.50;;;;;;4969731;28;20572;-80
2024/02/18 00:31:29;;;;;;;12.77;12.07;;;12.30;27.20;;;;;;4955490;28;20455;-79
2024/02/18 00:33:54;;;;;;;12.93;12.17;;;12.40;27.10;;;;;;4970653;28;20427;-81
2024/02/18 00:36:20;;;;;;;12.43;11.80;;;12.40;27.20;;;;;;4971935;28;20694;-80
2024/02/18 00:38:46;;;;;;;13.80;12.80;;;12.40;27.10;;;;;;4956515;28;20187;-81
2024/02/18 00:41:11;;;;;;;13.63;12.83;;;12.40;27.30;;;;;;4971363;28;20234;-80
2024/02/18 00:43:37;;;;;;;13.30;12.40;;;12.40;27.20;;;;;;4972020;28;20285;-80
2024/02/18 00:46:02;;;;;;;12.70;11.93;;;12.40;27.40;;;;;;4972288;28;20187;-81
2024/02/18 00:48:28;;;;;;;14.03;13.10;;;12.40;27.30;;;;;;4956594;28;20675;-79
2024/02/18 00:50:55;;;;;;;13.50;12.50;;;12.40;27.10;;;;;;4958006;28;20212;-78
2024/02/18 00:53:21;;;;;;;13.70;12.93;;;12.50;27.00;;;;;;4956471;28;20550;-79
2024/02/18 00:55:53;;;;;;;16.03;15.03;;;12.50;26.60;;;;;;4970805;28;20431;-79
2024/02/18 00:58:19;;;;;;;14.90;13.87;;;12.40;25.60;;;;;;4946702;29;20254;-80
2024/02/18 01:00:45;;;;;;;14.93;13.93;;;12.20;26.40;;;;;;4971291;28;20462;-79
2024/02/18 01:03:11;;;;;;;13.53;12.63;;;12.20;27.00;;;;;;4970466;28;20434;-79
2024/02/18 01:05:36;;;;;;;15.10;14.07;;;12.00;26.50;;;;;;4955858;28;20202;-80
2024/02/18 01:08:02;;;;;;;14.90;13.90;;;11.90;26.70;;;;;;4970170;28;20194;-79
2024/02/18 01:10:29;;;;;;;15.50;14.40;;;11.60;27.60;;;;;;4954714;28;20842;-80
2024/02/18 01:12:55;;;;;;;15.27;14.10;;;11.50;27.90;;;;;;4970175;28;20187;-80
2024/02/18 01:15:20;;;;;;;16.27;15.17;;;11.40;28.50;;;;;;4955354;28;20801;-79
2024/02/18 01:17:46;;;;;;;15.30;14.40;;;11.40;28.50;;;;;;4953811;28;20278;-80
2024/02/18 01:20:12;;;;;;;15.33;14.40;;;11.50;28.40;;;;;;4955413;28;20856;-80
2024/02/18 01:22:37;;;;;;;15.37;14.33;;;11.50;28.40;;;;;;4955537;28;20223;-79
2024/02/18 01:25:03;;;;;;;15.80;14.60;;;11.50;28.20;;;;;;4955733;28;20202;-79
2024/02/18 01:27:29;;;;;;;15.40;14.40;;;11.50;28.40;;;;;;4955154;28;20250;-79
2024/02/18 01:29:54;;;;;;;15.97;14.87;;;11.60;28.60;;;;;;4969641;28;20466;-79
2024/02/18 01:32:20;;;;;;;17.40;16.10;;;11.70;28.50;;;;;;4947749;29;20690;-80
2024/02/18 01:34:46;;;;;;;17.37;16.27;;;11.80;28.20;;;;;;4955682;29;20186;-81
2024/02/18 01:37:11;;;;;;;18.10;16.90;;;11.70;27.90;;;;;;4955548;28;20183;-80
2024/02/18 01:39:37;;;;;;;16.20;15.20;;;11.60;28.00;;;;;;4953845;28;20196;-79
2024/02/18 01:42:02;;;;;;;16.93;15.83;;;11.50;28.60;;;;;;4955854;28;20247;-79
2024/02/18 01:44:28;;;;;;;16.13;15.00;;;11.50;28.70;;;;;;4970123;28;20194;-80
2024/02/18 01:46:54;;;;;;;17.20;16.00;;;11.50;28.80;;;;;;4970689;28;20195;-80
2024/02/18 01:49:20;;;;;;;17.50;16.33;;;11.60;28.50;;;;;;4969832;28;20211;-81
2024/02/18 01:51:46;;;;;;;17.50;16.00;;;11.80;28.20;;;;;;4957471;28;20461;-79
2024/02/18 01:54:24;;;;;;;18.57;17.33;;;11.90;27.90;;;;;;4955517;28;20518;-80
2024/02/18 01:56:50;;;;;;;18.23;16.70;;;12.00;27.60;;;;;;4955743;28;20427;-79
2024/02/18 01:59:15;;;;;;;17.87;16.47;;;11.90;27.60;;;;;;4970522;28;20455;-79
2024/02/18 02:01:42;;;;;;;16.90;15.70;;;11.90;27.40;;;;;;4970643;28;20223;-80
2024/02/18 02:04:07;;;;;;;17.07;15.97;;;11.80;28.50;;;;;;4970394;28;20659;-79
2024/02/18 02:06:34;;;;;;;16.33;15.20;;;11.80;28.00;;;;;;4970829;28;20435;-80
2024/02/18 02:09:00;;;;;;;17.20;15.53;;;11.90;27.70;;;;;;4954795;28;20191;-80
2024/02/18 02:11:25;;;;;;;18.53;17.30;;;11.90;27.30;;;;;;4955426;28;20978;-80
2024/02/18 02:13:51;;;;;;;19.00;17.67;;;11.80;27.80;;;;;;4955531;28;20442;-79
2024/02/18 02:16:18;;;;;;;19.67;18.20;;;11.70;28.10;;;;;;4971481;28;20187;-81
2024/02/18 02:18:44;;;;;;;19.60;18.23;;;11.60;28.60;;;;;;4969658;28;20198;-79
2024/02/18 02:21:09;;;;;;;22.30;20.70;;;11.40;28.80;;;;;;4969827;28;20471;-81
2024/02/18 02:23:35;;;;;;;21.20;19.30;;;11.30;29.20;;;;;;4970791;28;20238;-79
2024/02/18 02:26:03;;;;;;;19.80;18.40;;;11.30;29.70;;;;;;4970792;28;20207;-78
2024/02/18 02:28:32;;;;;;;21.27;19.40;;;11.40;29.50;;;;;;4954288;28;20191;-79
2024/02/18 02:30:59;;;;;;;19.23;17.93;;;11.60;28.90;;;;;;4958593;28;20470;-79
2024/02/18 02:33:25;;;;;;;20.27;18.90;;;11.40;28.90;;;;;;4974716;28;20979;-79
2024/02/18 02:35:51;;;;;;;20.93;19.53;;;11.40;29.00;;;;;;4975326;28;20522;-78
2024/02/18 02:38:16;;;;;;;18.73;17.63;;;11.30;29.70;;;;;;4960865;28;20183;-79
2024/02/18 02:40:41;;;;;;;19.73;18.37;;;11.40;29.20;;;;;;4958779;28;20258;-79
2024/02/18 02:43:07;;;;;;;20.73;19.33;;;11.30;29.00;;;;;;4974060;28;20191;-80
2024/02/18 02:45:33;;;;;;;19.77;18.47;;;11.20;29.10;;;;;;4959177;28;20198;-80
2024/02/18 02:47:59;;;;;;;19.57;18.30;;;11.20;30.00;;;;;;4955902;28;20187;-80
2024/02/18 02:50:25;;;;;;;20.00;18.80;;;11.30;29.50;;;;;;4944572;28;20849;-79
2024/02/18 02:52:51;;;;;;;20.10;18.63;;;11.30;29.40;;;;;;4958814;28;20443;-79
2024/02/18 02:55:17;;;;;;;18.33;17.13;;;11.20;29.40;;;;;;4958077;28;20445;-79
2024/02/18 02:57:42;;;;;;;19.67;18.23;;;11.10;29.80;;;;;;4958724;28;20655;-79
2024/02/18 03:00:11;;;;;;;21.33;19.93;;;10.90;30.50;;;;;;4972311;28;20450;-79
2024/02/18 03:02:38;;;;;;;20.10;18.70;;;10.80;31.20;;;;;;4957817;28;20214;-78
2024/02/18 03:05:04;;;;;;;19.30;17.97;;;10.90;31.20;;;;;;4958601;28;20482;-80
2024/02/18 03:07:30;;;;;;;21.23;19.60;;;11.00;30.80;;;;;;4972717;28;20431;-79
2024/02/18 03:09:55;;;;;;;19.70;18.47;;;11.20;30.50;;;;;;4955078;29;20821;-79
2024/02/18 03:12:21;;;;;;;18.93;17.40;;;11.30;29.70;;;;;;4955952;28;20571;-79
2024/02/18 03:14:48;;;;;;;17.97;16.87;;;11.40;29.20;;;;;;4972981;28;20218;-78
2024/02/18 03:17:13;;;;;;;19.33;18.13;;;11.50;29.20;;;;;;4972367;28;20282;-80
2024/02/18 03:19:39;;;;;;;16.70;15.50;;;11.50;28.80;;;;;;4956746;28;20465;-80
2024/02/18 03:22:05;;;;;;;17.50;16.00;;;11.60;28.80;;;;;;4957895;28;20591;-79
2024/02/18 03:24:31;;;;;;;18.93;17.40;;;11.60;28.50;;;;;;4958229;28;20187;-79
2024/02/18 03:26:57;;;;;;;17.77;16.57;;;11.60;28.40;;;;;;4956927;28;20427;-80
2024/02/18 03:29:22;;;;;;;16.77;15.57;;;11.60;28.30;;;;;;4970319;28;20211;-78
2024/02/18 03:31:51;;;;;;;16.73;15.47;;;11.50;28.40;;;;;;4955925;28;20711;-79
2024/02/18 03:34:17;;;;;;;16.27;15.27;;;11.20;29.10;;;;;;4956550;28;20183;-79
2024/02/18 03:36:43;;;;;;;16.50;15.20;;;10.90;29.70;;;;;;4956261;28;20437;-80
2024/02/18 03:39:08;;;;;;;16.07;15.07;;;10.70;30.50;;;;;;4955945;28;20745;-79
2024/02/18 03:41:34;;;;;;;17.17;16.23;;;10.50;31.70;;;;;;4970705;28;20341;-79
2024/02/18 03:44:00;;;;;;;17.30;15.70;;;10.40;31.80;;;;;;4956429;28;20202;-79
2024/02/18 03:46:25;;;;;;;17.27;15.90;;;10.40;32.00;;;;;;4970591;28;20427;-78
2024/02/18 03:48:51;;;;;;;15.80;14.70;;;10.50;31.90;;;;;;4955921;28;20187;-79
2024/02/18 03:51:16;;;;;;;15.57;14.47;;;10.60;31.40;;;;;;4970253;28;20248;-78
2024/02/18 03:53:42;;;;;;;15.00;14.00;;;10.50;31.90;;;;;;4955338;28;20559;-78
2024/02/18 03:56:07;;;;;;;15.00;14.00;;;10.40;31.80;;;;;;4970592;28;20562;-78
2024/02/18 03:58:33;;;;;;;14.70;13.80;;;10.60;32.10;;;;;;4955407;28;20241;-79
2024/02/18 04:00:58;;;;;;;14.17;13.27;;;10.60;31.70;;;;;;4955368;28;20211;-79
2024/02/18 04:03:24;;;;;;;16.10;15.10;;;10.60;31.60;;;;;;4956144;28;20262;-79
2024/02/18 04:05:49;;;;;;;15.30;14.30;;;10.50;31.30;;;;;;4970468;28;20266;-79
2024/02/18 04:08:15;;;;;;;17.07;15.97;;;10.60;32.00;;;;;;4956392;28;20218;-79
2024/02/18 04:10:40;;;;;;;15.93;15.03;;;10.70;31.80;;;;;;4957637;28;20210;-79
2024/02/18 04:13:06;;;;;;;15.80;14.80;;;10.80;31.20;;;;;;4957153;28;20282;-79
2024/02/18 04:15:33;;;;;;;16.00;15.00;;;11.00;30.70;;;;;;4957584;28;20190;-79
2024/02/18 04:17:58;;;;;;;18.03;16.73;;;11.20;29.90;;;;;;4957702;28;20772;-79
2024/02/18 04:20:24;;;;;;;16.63;15.43;;;11.40;29.20;;;;;;4972242;28;20184;-79
2024/02/18 04:22:55;;;;;;;18.53;17.07;;;11.50;28.70;;;;;;5031760;23;20222;-83
2024/02/18 04:25:23;;;;;;;17.50;16.43;;;11.70;28.20;;;;;;5005003;28;20236;-84
2024/02/18 04:27:49;;;;;;;18.27;16.97;;;11.80;27.80;;;;;;4989006;28;20465;-84
2024/02/18 04:30:15;;;;;;;18.20;17.03;;;11.90;27.40;;;;;;5007486;28;20492;-84
2024/02/18 04:32:40;;;;;;;14.87;13.97;;;12.00;27.00;;;;;;4993357;28;20504;-82
2024/02/18 04:35:09;;;;;;;15.63;14.60;;;11.70;27.20;;;;;;4989934;28;20620;-84
2024/02/18 04:37:40;;;;;;;15.50;14.60;;;11.60;27.80;;;;;;4986195;28;20713;-84
2024/02/18 04:40:08;;;;;;;15.40;14.23;;;11.40;27.90;;;;;;4981076;28;21012;-84
2024/02/18 04:42:34;;;;;;;15.20;14.20;;;11.10;28.70;;;;;;4988439;28;20494;-83
2024/02/18 04:45:00;;;;;;;16.10;15.20;;;11.00;29.30;;;;;;4991888;28;20450;-84
2024/02/18 04:47:27;;;;;;;15.57;14.53;;;10.80;29.60;;;;;;4984570;28;20198;-84
2024/02/18 04:49:55;;;;;;;15.37;14.47;;;10.70;30.30;;;;;;4984544;28;20512;-83
2024/02/18 04:52:23;;;;;;;15.77;14.87;;;10.60;30.80;;;;;;4985125;28;20500;-83
2024/02/18 04:54:51;;;;;;;16.50;15.50;;;10.60;31.10;;;;;;4985185;28;20437;-84
2024/02/18 04:57:21;;;;;;;15.53;14.37;;;10.80;31.30;;;;;;4985733;28;20442;-83
2024/02/18 04:59:53;;;;;;;15.90;14.80;;;11.10;30.00;;;;;;4983739;28;20470;-84
2024/02/18 05:02:21;;;;;;;14.97;14.07;;;11.30;29.20;;;;;;4984386;28;20472;-84
2024/02/18 05:04:49;;;;;;;14.17;13.27;;;11.40;28.70;;;;;;4983533;28;20481;-82
2024/02/18 05:07:16;;;;;;;14.43;13.53;;;11.20;28.40;;;;;;4982941;28;20477;-83
2024/02/18 05:09:46;;;;;;;14.87;13.87;;;11.00;28.80;;;;;;4977366;28;20476;-83
2024/02/18 05:12:11;;;;;;;14.30;13.40;;;10.80;29.20;;;;;;4971974;28;20447;-83
2024/02/18 05:14:38;;;;;;;14.33;13.43;;;10.60;29.60;;;;;;4974821;28;20195;-82
2024/02/18 05:17:04;;;;;;;14.67;13.87;;;10.60;30.00;;;;;;4981787;28;20473;-82
2024/02/18 05:19:30;;;;;;;16.17;14.93;;;10.40;30.50;;;;;;4955793;28;20457;-82
2024/02/18 05:21:56;;;;;;;15.70;14.80;;;10.40;31.30;;;;;;4954919;28;20470;-82
2024/02/18 05:24:23;;;;;;;14.43;13.53;;;10.40;31.00;;;;;;4981598;28;20426;-82
2024/02/18 05:26:52;;;;;;;15.87;14.90;;;10.40;31.50;;;;;;4983808;28;20187;-83
2024/02/18 05:29:18;;;;;;;15.73;14.77;;;10.40;30.80;;;;;;4981122;28;20514;-82
2024/02/18 05:31:44;;;;;;;15.30;14.30;;;10.50;30.80;;;;;;4982725;28;20202;-83
2024/02/18 05:34:10;;;;;;;16.00;15.10;;;10.50;31.20;;;;;;4981479;28;20446;-81
2024/02/18 05:36:39;;;;;;;14.70;13.60;;;10.70;30.80;;;;;;4982179;28;20444;-82
2024/02/18 05:39:04;;;;;;;16.07;14.97;;;10.90;30.00;;;;;;4980512;28;20536;-83
2024/02/18 05:41:30;;;;;;;15.10;14.30;;;11.00;29.00;;;;;;4979976;28;20976;-81
2024/02/18 05:43:58;;;;;;;15.10;14.10;;;10.90;28.80;;;;;;4974468;28;20442;-81
2024/02/18 05:46:24;;;;;;;13.97;12.97;;;10.60;29.50;;;;;;4980084;28;20195;-79
2024/02/18 05:48:49;;;;;;;16.37;15.27;;;10.40;29.90;;;;;;4980372;28;20445;-81
2024/02/18 05:51:15;;;;;;;15.37;14.37;;;10.20;30.50;;;;;;4980374;28;20686;-82
2024/02/18 05:53:40;;;;;;;14.77;13.87;;;10.00;31.00;;;;;;4982637;28;20163;-82
2024/02/18 05:56:07;;;;;;;15.43;14.43;;;10.00;31.50;;;;;;4981163;28;20618;-80
2024/02/18 05:58:32;;;;;;;13.83;13.03;;;10.10;31.60;;;;;;4979346;28;20183;-80
2024/02/18 06:00:58;;;;;;;15.43;14.43;;;10.10;30.80;;;;;;4978399;28;20441;-82
2024/02/18 06:03:23;;;;;;;16.00;15.00;;;10.00;31.50;;;;;;4978284;28;20183;-82
2024/02/18 06:05:49;;;;;;;15.83;14.63;;;9.90;32.30;;;;;;4981633;28;20183;-82
2024/02/18 06:08:14;;;;;;;17.67;16.37;;;9.90;33.20;;;;;;4981025;28;20199;-82
2024/02/18 06:10:40;;;;;;;15.43;14.63;;;10.20;31.70;;;;;;4982706;28;20211;-84
2024/02/18 06:13:06;;;;;;;17.27;16.07;;;10.40;31.30;;;;;;4983721;28;20583;-83
2024/02/18 06:15:32;;;;;;;16.97;15.80;;;10.70;30.50;;;;;;4991915;28;20246;-83
2024/02/18 06:17:58;;;;;;;15.83;14.63;;;10.80;29.60;;;;;;4986654;28;20191;-83
2024/02/18 06:20:25;;;;;;;15.70;14.60;;;11.00;28.90;;;;;;4995744;28;20809;-83
2024/02/18 06:22:51;;;;;;;15.83;14.90;;;11.00;28.50;;;;;;4987412;28;20477;-82
2024/02/18 06:25:16;;;;;;;16.03;15.10;;;11.10;28.10;;;;;;4987986;28;20510;-84
2024/02/18 06:27:42;;;;;;;15.30;14.40;;;11.20;27.90;;;;;;4987508;28;20196;-83
2024/02/18 06:30:08;;;;;;;15.90;14.90;;;11.20;27.80;;;;;;4988633;28;20210;-83
2024/02/18 06:32:35;;;;;;;16.83;15.73;;;11.10;27.70;;;;;;4984363;28;20455;-83
2024/02/18 06:35:01;;;;;;;16.70;15.70;;;11.20;27.70;;;;;;4990083;28;20440;-84
2024/02/18 06:37:27;;;;;;;17.37;16.37;;;11.30;27.20;;;;;;4989938;28;20440;-83
2024/02/18 06:39:53;;;;;;;16.47;15.47;;;11.30;26.60;;;;;;4981112;28;20437;-83
2024/02/18 06:42:19;;;;;;;17.13;15.83;;;11.30;26.60;;;;;;4981490;28;20218;-83
2024/02/18 06:44:44;;;;;;;16.03;15.00;;;10.90;27.40;;;;;;4987521;28;20183;-83
2024/02/18 06:47:10;;;;;;;15.90;14.83;;;10.80;28.40;;;;;;4983243;28;20194;-82
2024/02/18 06:49:35;;;;;;;15.00;14.10;;;10.90;28.30;;;;;;4978042;28;20551;-81
2024/02/18 06:52:01;;;;;;;17.10;16.10;;;10.70;27.70;;;;;;4983607;28;20636;-83
2024/02/18 06:54:26;;;;;;;17.17;16.17;;;10.50;29.10;;;;;;4978825;28;20279;-82
2024/02/18 06:56:52;;;;;;;18.50;17.43;;;10.30;29.40;;;;;;4986988;28;20210;-83
2024/02/18 06:59:18;;;;;;;18.27;16.87;;;10.30;30.00;;;;;;4985983;28;20708;-83
2024/02/18 07:01:44;;;;;;;16.40;15.40;;;10.40;30.30;;;;;;4987305;28;20195;-82
2024/02/18 07:04:10;;;;;;;16.60;15.53;;;10.50;29.70;;;;;;4985048;28;20444;-81
2024/02/18 07:06:37;;;;;;;19.77;18.43;;;10.70;29.00;;;;;;4990030;28;20187;-82
2024/02/18 07:09:04;;;;;;;20.43;19.00;;;10.60;29.10;;;;;;4967626;28;20188;-83
2024/02/18 07:11:30;;;;;;;18.20;17.00;;;10.50;29.10;;;;;;4991687;28;20528;-82
2024/02/18 07:13:56;;;;;;;19.20;17.80;;;10.30;29.00;;;;;;4989703;28;20890;-81
2024/02/18 07:16:22;;;;;;;18.70;17.40;;;10.20;29.40;;;;;;4987878;28;20210;-81
2024/02/18 07:18:47;;;;;;;19.60;18.30;;;10.20;29.80;;;;;;4987050;28;20434;-82
2024/02/18 07:21:14;;;;;;;18.27;16.90;;;10.20;29.50;;;;;;4986272;28;20556;-83
2024/02/18 07:23:40;;;;;;;18.43;17.33;;;10.20;29.40;;;;;;4981505;28;20191;-82
2024/02/18 07:26:10;;;;;;;19.10;17.80;;;10.30;29.80;;;;;;4989979;28;20933;-82
2024/02/18 07:28:35;;;;;;;18.73;17.43;;;10.30;29.50;;;;;;4981481;28;20445;-84
2024/02/18 07:31:03;;;;;;;20.13;18.80;;;10.50;29.30;;;;;;4990948;28;20477;-83
2024/02/18 07:33:33;;;;;;;18.40;17.30;;;10.50;28.80;;;;;;4985782;28;20191;-83
2024/02/18 07:35:58;;;;;;;20.40;18.90;;;10.60;28.50;;;;;;4975389;28;20428;-81
2024/02/18 07:38:26;;;;;;;17.50;16.20;;;10.60;28.40;;;;;;4983112;28;20430;-82
2024/02/18 07:40:52;;;;;;;18.43;17.03;;;10.50;28.40;;;;;;4988045;28;20187;-82
2024/02/18 07:43:17;;;;;;;18.03;16.87;;;10.50;29.00;;;;;;4984556;28;20439;-81
2024/02/18 07:45:43;;;;;;;18.83;17.57;;;10.50;29.10;;;;;;4987539;28;20197;-81
2024/02/18 07:48:09;;;;;;;17.23;16.07;;;10.50;29.30;;;;;;4984385;28;20193;-79
2024/02/18 07:50:36;;;;;;;19.60;18.30;;;10.40;29.40;;;;;;4986161;28;20736;-81
2024/02/18 07:53:02;;;;;;;19.00;17.70;;;10.40;29.50;;;;;;4980864;28;20450;-81
2024/02/18 07:55:28;;;;;;;18.70;17.40;;;10.40;29.30;;;;;;4983849;28;20433;-81
2024/02/18 07:57:53;;;;;;;17.87;16.60;;;10.40;29.50;;;;;;4987037;28;20473;-81
2024/02/18 08:00:20;;;;;;;19.23;17.93;;;10.40;29.50;;;;;;4978608;28;20206;-82
2024/02/18 08:02:46;;;;;;;19.77;18.57;;;10.50;29.30;;;;;;4979226;28;20622;-82
2024/02/18 08:05:11;;;;;;;19.20;17.73;;;10.60;29.40;;;;;;4979676;28;20446;-82
2024/02/18 08:07:37;;;;;;;18.00;16.80;;;10.60;29.10;;;;;;4978511;28;20186;-81
2024/02/18 08:10:04;;;;;;;19.70;18.40;;;10.60;29.50;;;;;;4977006;28;20206;-82
2024/02/18 08:12:30;;;;;;;18.83;17.63;;;10.70;29.10;;;;;;4978482;28;20553;-81
2024/02/18 08:14:56;;;;;;;18.13;17.03;;;10.70;28.80;;;;;;4977718;28;20437;-82
2024/02/18 08:17:22;;;;;;;19.50;18.10;;;10.70;28.80;;;;;;4977349;28;20427;-81
2024/02/18 08:19:49;;;;;;;16.90;15.90;;;10.80;29.10;;;;;;4976431;28;20215;-81
2024/02/18 08:22:15;;;;;;;18.03;17.03;;;10.70;29.10;;;;;;4977623;28;20592;-81
2024/02/18 08:24:44;;;;;;;17.00;15.90;;;10.70;28.70;;;;;;4979187;28;20434;-82
2024/02/18 08:27:11;;;;;;;19.90;18.30;;;10.70;28.80;;;;;;4981555;28;20480;-82
2024/02/18 08:29:39;;;;;;;19.30;17.90;;;10.70;28.70;;;;;;4979127;28;20474;-82
2024/02/18 08:32:06;;;;;;;18.23;17.07;;;10.80;28.60;;;;;;4976532;28;20202;-82
2024/02/18 08:34:32;;;;;;;19.63;18.23;;;10.80;28.90;;;;;;4977774;28;20860;-81
2024/02/18 08:36:57;;;;;;;19.23;17.73;;;10.90;28.70;;;;;;4981265;28;20442;-81
2024/02/18 08:39:23;;;;;;;20.40;19.00;;;10.90;28.50;;;;;;4980559;28;20521;-82
2024/02/18 08:41:50;;;;;;;19.40;18.10;;;10.90;28.90;;;;;;4983423;28;20246;-82
2024/02/18 08:44:16;;;;;;;18.47;17.27;;;11.00;28.50;;;;;;4982657;28;20203;-82
2024/02/18 08:46:41;;;;;;;21.23;19.83;;;11.10;28.60;;;;;;4983102;28;20775;-82
2024/02/18 08:49:07;;;;;;;18.23;17.03;;;11.10;28.10;;;;;;4982465;28;20472;-82
2024/02/18 08:51:33;;;;;;;18.30;16.83;;;11.30;28.10;;;;;;4979685;28;20349;-81
2024/02/18 08:53:59;;;;;;;18.50;17.40;;;11.30;27.70;;;;;;4980904;28;20190;-82
2024/02/18 08:56:25;;;;;;;17.80;16.60;;;11.40;27.80;;;;;;4979859;28;20430;-81
2024/02/18 08:58:50;;;;;;;18.63;17.43;;;11.40;27.80;;;;;;4978803;28;20185;-81
2024/02/18 09:01:19;;;;;;;19.57;18.17;;;11.60;28.20;;;;;;4978782;28;20210;-82
2024/02/18 09:03:45;;;;;;;19.50;18.13;;;11.60;26.90;;;;;;4978652;28;20254;-82
2024/02/18 09:06:10;;;;;;;19.47;18.20;;;11.60;27.10;;;;;;4978110;28;20461;-82
2024/02/18 09:08:36;;;;;;;18.20;17.00;;;11.80;27.50;;;;;;4977072;28;20194;-82
2024/02/18 09:11:01;;;;;;;18.67;17.37;;;12.00;27.10;;;;;;4977905;28;20238;-82
2024/02/18 09:13:27;;;;;;;16.70;15.60;;;12.10;27.10;;;;;;4984565;28;20213;-82
2024/02/18 09:15:52;;;;;;;16.50;15.40;;;12.10;26.50;;;;;;4988426;28;20651;-82
2024/02/18 09:18:18;;;;;;;17.27;16.17;;;12.10;26.50;;;;;;4987538;28;20187;-82
2024/02/18 09:20:44;;;;;;;18.33;17.20;;;12.10;26.40;;;;;;4982229;28;20523;-82
2024/02/18 09:23:10;;;;;;;17.07;15.90;;;12.00;26.70;;;;;;4984267;28;20445;-83
2024/02/18 09:25:35;;;;;;;17.40;16.30;;;12.10;26.50;;;;;;4982908;28;20198;-83
2024/02/18 09:28:01;;;;;;;16.63;15.60;;;12.10;26.40;;;;;;4982830;28;20191;-81
2024/02/18 09:30:26;;;;;;;17.43;16.07;;;12.10;26.30;;;;;;4980824;28;20206;-83
2024/02/18 09:32:52;;;;;;;15.63;14.63;;;12.20;26.60;;;;;;4984728;28;20314;-83
2024/02/18 09:35:18;;;;;;;14.57;13.67;;;12.30;24.80;;;;;;4983318;28;20187;-82
2024/02/18 09:37:43;;;;;;;15.77;14.67;;;12.30;23.90;;;;;;4981866;28;20218;-82
2024/02/18 09:40:10;;;;;;;16.07;14.97;;;12.40;24.20;;;;;;4985278;28;20193;-81
2024/02/18 09:42:40;;;;;;;13.53;12.60;;;12.40;23.80;;;;;;4986645;28;20285;-83
2024/02/18 09:45:07;;;;;;;13.57;12.77;;;12.50;22.30;;;;;;4988134;28;20441;-82
2024/02/18 09:47:35;;;;;;;13.67;12.87;;;12.50;21.40;;;;;;4986404;28;20509;-82
2024/02/18 09:50:00;;;;;;;13.17;12.37;;;12.50;21.40;;;;;;4985734;28;20476;-81
2024/02/18 09:52:26;;;;;;;12.80;12.13;;;12.60;20.80;;;;;;4985792;28;20525;-83
2024/02/18 09:54:52;;;;;;;13.60;12.70;;;12.50;20.00;;;;;;4987955;28;20721;-83
2024/02/18 09:57:18;;;;;;;11.70;11.00;;;12.60;20.00;;;;;;4986969;28;20573;-82
2024/02/18 09:59:44;;;;;;;11.53;10.93;;;12.60;19.80;;;;;;4992559;28;20442;-81
2024/02/18 10:02:11;;;;;;;13.43;12.40;;;12.60;19.60;;;;;;4996083;28;20457;-82
2024/02/18 10:04:37;;;;;;;12.10;11.10;;;12.60;19.10;;;;;;4991375;28;20206;-82
2024/02/18 10:07:03;;;;;;;11.67;10.87;;;12.60;19.70;;;;;;4989804;28;20437;-82
2024/02/18 10:09:31;;;;;;;11.10;10.33;;;12.60;19.50;;;;;;4989531;28;20449;-82
2024/02/18 10:11:57;;;;;;;11.97;11.27;;;12.70;19.70;;;;;;4986698;28;20454;-83
2024/02/18 10:14:25;;;;;;;12.30;11.50;;;12.70;19.80;;;;;;4985816;28;20430;-82
2024/02/18 10:16:51;;;;;;;11.57;10.90;;;12.70;19.40;;;;;;4988923;28;20457;-82
2024/02/18 10:19:17;;;;;;;11.53;10.87;;;12.60;18.90;;;;;;4988534;28;20437;-82
2024/02/18 10:21:44;;;;;;;10.13;9.53;;;12.60;18.70;;;;;;5004447;23;20580;-80
2024/02/18 10:24:12;;;;;;;11.43;10.63;;;12.60;18.70;;;;;;4981099;28;20275;-81
2024/02/18 10:26:38;;;;;;;9.93;9.43;;;12.60;18.80;;;;;;4977497;28;20430;-81
2024/02/18 10:29:05;;;;;;;10.27;9.63;;;12.70;18.80;;;;;;4994077;28;20573;-81
2024/02/18 10:31:33;;;;;;;9.33;8.83;;;12.70;18.70;;;;;;4980417;28;20218;-81
2024/02/18 10:33:58;;;;;;;9.37;8.87;;;12.80;18.40;;;;;;4963958;28;20478;-81
2024/02/18 10:36:25;;;;;;;10.67;9.97;;;12.80;18.40;;;;;;4983770;28;20849;-81
2024/02/18 10:38:57;;;;;;;10.73;10.13;;;12.80;18.50;;;;;;4982956;28;20677;-81
2024/02/18 10:41:39;;;;;;;9.63;9.10;;;12.90;18.40;;;;;;4978860;28;20437;-81
2024/02/18 10:44:16;;;;;;;10.17;9.57;;;12.80;18.30;;;;;;4980020;28;20430;-81
2024/02/18 10:46:43;;;;;;;10.60;9.93;;;12.90;18.60;;;;;;4978506;28;20516;-82
2024/02/18 10:49:32;;;;;;;11.33;10.70;;;13.00;18.60;;;;;;4978873;28;20425;-81
2024/02/18 10:52:40;;;;;;;10.70;10.10;;;13.00;18.40;;;;;;4978198;28;20453;-81
2024/02/18 10:55:17;;;;;;;9.90;9.40;;;13.10;18.10;;;;;;4979153;28;20600;-81
2024/02/18 10:58:13;;;;;;;10.00;9.47;;;13.10;18.10;;;;;;4977546;28;20433;-80
2024/02/18 11:00:42;;;;;;;9.73;9.03;;;13.20;17.90;;;;;;4976793;28;20433;-81
2024/02/18 11:03:30;;;;;;;9.23;8.67;;;13.30;18.00;;;;;;4960701;29;20447;-81
2024/02/18 11:05:58;;;;;;;9.30;8.80;;;13.40;17.90;;;;;;4959117;29;20445;-82
2024/02/18 11:08:28;;;;;;;9.90;9.30;;;13.40;17.90;;;;;;4958726;28;20823;-83
2024/02/18 11:10:54;;;;;;;8.77;8.27;;;13.40;17.70;;;;;;4961324;29;20498;-82
2024/02/18 11:13:21;;;;;;;9.60;9.10;;;13.40;17.80;;;;;;4955742;28;20456;-80
2024/02/18 11:15:47;;;;;;;9.37;8.87;;;13.40;17.70;;;;;;4967588;28;20475;-80
2024/02/18 11:18:14;;;;;;;9.80;9.30;;;13.50;17.90;;;;;;4975328;28;20429;-80
2024/02/18 11:20:40;;;;;;;9.20;8.70;;;13.50;17.60;;;;;;4979416;28;20430;-82
2024/02/18 11:23:06;;;;;;;10.53;9.87;;;13.50;17.70;;;;;;4961032;29;20458;-81
2024/02/18 11:25:32;;;;;;;10.07;9.37;;;13.50;17.30;;;;;;4960768;28;20990;-81
2024/02/18 11:27:59;;;;;;;9.13;8.63;;;13.50;17.30;;;;;;4958881;29;20194;-80
2024/02/18 11:30:24;;;;;;;9.77;9.13;;;13.50;17.30;;;;;;4964626;28;20253;-81
2024/02/18 11:32:50;;;;;;;9.47;8.87;;;13.60;17.40;;;;;;4976011;28;20454;-80
2024/02/18 11:35:17;;;;;;;9.03;8.53;;;13.60;17.90;;;;;;4976121;28;20601;-79
2024/02/18 11:37:43;;;;;;;8.63;8.17;;;13.60;17.40;;;;;;4975741;28;20804;-79
2024/02/18 11:40:18;;;;;;;8.33;7.93;;;13.50;16.70;;;;;;4957697;28;20431;-80
2024/02/18 11:42:45;;;;;;;10.10;9.40;;;13.50;16.90;;;;;;4957912;29;20273;-79
2024/02/18 11:45:12;;;;;;;8.73;8.13;;;13.50;16.50;;;;;;4958268;29;20443;-79
2024/02/18 11:47:44;;;;;;;9.90;9.40;;;13.50;16.30;;;;;;4967832;28;20798;-78
2024/02/18 11:50:09;;;;;;;9.20;8.67;;;13.50;16.10;;;;;;4978606;28;20477;-79
2024/02/18 11:52:36;;;;;;;7.83;7.43;;;13.50;16.20;;;;;;4979553;28;20506;-80
2024/02/18 11:55:15;;;;;;;8.07;7.57;;;13.60;16.10;;;;;;4977231;28;20194;-79
2024/02/18 11:57:40;;;;;;;8.90;8.40;;;13.60;15.70;;;;;;4969376;28;20423;-79
2024/02/18 12:00:11;;;;;;;8.30;7.80;;;13.60;15.90;;;;;;4958923;28;20849;-80
2024/02/18 12:02:38;;;;;;;8.30;7.87;;;13.60;15.90;;;;;;4959921;28;20199;-79
2024/02/18 12:05:05;;;;;;;8.30;7.77;;;13.70;15.90;;;;;;4959407;28;20518;-79
2024/02/18 12:07:33;;;;;;;7.80;7.40;;;13.70;15.50;;;;;;4958562;28;20442;-80
2024/02/18 12:09:59;;;;;;;7.70;7.20;;;13.70;15.80;;;;;;4956885;28;20537;-79
2024/02/18 12:12:26;;;;;;;7.43;6.93;;;13.80;15.60;;;;;;4958585;28;20454;-79
2024/02/18 12:14:55;;;;;;;7.40;7.00;;;13.90;15.60;;;;;;4957497;29;20270;-79
2024/02/18 12:17:24;;;;;;;7.80;7.20;;;14.00;15.40;;;;;;4949386;29;20486;-79
2024/02/18 12:19:51;;;;;;;7.00;6.60;;;14.10;15.30;;;;;;4956537;29;20436;-79
2024/02/18 12:22:23;;;;;;;7.67;7.17;;;14.20;14.80;;;;;;4961747;28;20533;-78
2024/02/18 12:24:50;;;;;;;7.53;7.13;;;14.10;14.60;;;;;;4961923;28;20462;-79
2024/02/18 12:27:18;;;;;;;7.00;6.60;;;14.10;14.50;;;;;;4959676;29;20804;-80
2024/02/18 12:29:47;;;;;;;6.80;6.50;;;14.00;14.50;;;;;;4958192;28;20947;-78